หน้าหลัก
METAR-TAF:

METAR-TAF

ท่าอากาศยาน :

Army Air Corps Middle Wallop

Middle Wallop, อังกฤษ

ละติจูด: 51-09N, ลองจิจูด: 001-34W, ความสูง: 91 ม.

การสังเกตสภาพอากาศปัจจุบัน

รายงานได้ทำขึ้นเมื่อ 33 นาทีที่แล้ว ณ เวลา 01:20 UTC
ลม 5 นอตจากเหนือ/ตะวันออกเฉียงเหนือ
อุณหภูมิ 12°C
ความชื้น 88%
ความกดอากาศ 1017 hPa
ทัศนวิสัย 10 กม. หรือมากกว่า

METAR: EGVP 190120Z AUTO 02005KT 9999 NCD 12/10 Q1017

เวลา: 02:53 (01:53 UTC)

การพยากรณ์

รายงานได้ทำขึ้นเมื่อ 6 ชั่วโมงและ 30 นาทีที่แล้ว ณ เวลา 19:23 UTC
การพยากรณ์มีผลตั้งแต่วันที่ 18 ณ เวลา 21 UTC จนถึงวันที่ 19 ณ เวลา 01 UTC
ลม 7 นอตจากเหนือ
ทัศนวิสัย 10 กม. หรือมากกว่า
ไม่มีเมฆต่ำกว่า 1,500 ม. และไม่มีเมฆคิวมูโลนิมบัส

TAF: EGVP 181923Z 1821/1901 36007KT CAVOK

สังเกตการณ์สภาพอากาศและพยากรณ์อากาศของสนามบินมากกว่า 4000 แห่ง (รายงาน METAR และ TAF).

สถานีที่ดูได้จะแสดงไว้ด้วยจุดสีเหลืองและสีแดงบนแผนที่.

เลื่อนเมาส์ไปเหนือจุดเพื่อดูชื่อสถานี.

แล้วคลิกเพื่อดูสังเกตการณ์และการพยากรณ์สภาพอากาศ.

ในการเปลี่ยนแผนที่: คลิกที่ปุ่มสีเขียวที่มีกากบาทสีดำเพื่อซูมเข้า; ที่ปุ่มสีเขียวที่มีขีดเพื่อซูมออก; หรือที่ลูกศรสีเขียวเพื่อไปยังแผนที่ที่อยู่ติดกัน.


METAR-TAF: